Time;durP1;ratioP1;P1;durP2;ratioP2;P2;SDS_P1;SDS_P2;PMS_P1;PMS_P2;Temp;Humidity;BMP_temperature;BMP_pressure;BME280_temperature;BME280_humidity;BME280_pressure;Samples;Min_cycle;Max_cycle;Signal;HPM_P1;HPM_P2
2023/04/06 00:00:23;;;;;;;2.67;2.47;;;15.70;49.70;;;;;;5053399;28;20171;-68
2023/04/06 00:02:49;;;;;;;3.10;2.80;;;15.70;49.70;;;;;;5052542;28;20270;-69
2023/04/06 00:05:14;;;;;;;2.80;2.60;;;15.70;49.70;;;;;;5053409;28;20301;-70
2023/04/06 00:07:40;;;;;;;3.17;2.80;;;15.70;49.70;;;;;;5053424;28;20163;-68
2023/04/06 00:10:08;;;;;;;2.50;2.30;;;15.70;49.80;;;;;;5051911;28;20202;-68
2023/04/06 00:12:34;;;;;;;2.70;2.50;;;15.60;49.70;;;;;;5052626;28;20175;-68
2023/04/06 00:15:01;;;;;;;2.47;2.28;;;15.60;49.70;;;;;;5052842;28;20182;-69
2023/04/06 00:17:26;;;;;;;3.00;2.40;;;15.60;49.70;;;;;;5052268;28;20204;-68
2023/04/06 00:19:52;;;;;;;2.90;2.40;;;15.60;49.80;;;;;;5052768;28;20224;-68
2023/04/06 00:22:18;;;;;;;2.78;2.58;;;15.70;49.80;;;;;;5052681;28;20262;-68
2023/04/06 00:24:43;;;;;;;3.00;2.70;;;15.60;49.80;;;;;;5051624;28;20218;-66
2023/04/06 00:27:09;;;;;;;2.70;2.50;;;15.70;49.80;;;;;;5052928;28;20174;-68
2023/04/06 00:29:34;;;;;;;2.88;2.58;;;15.60;49.80;;;;;;5052802;28;20182;-69
2023/04/06 00:32:00;;;;;;;3.40;2.90;;;15.60;49.90;;;;;;5051785;28;20450;-67
2023/04/06 00:34:25;;;;;;;2.75;2.55;;;15.60;49.80;;;;;;5052591;28;20606;-68
2023/04/06 00:36:51;;;;;;;2.83;2.60;;;15.60;49.80;;;;;;5051674;28;20171;-68
2023/04/06 00:39:16;;;;;;;3.28;2.97;;;15.60;49.80;;;;;;5052609;28;20199;-68
2023/04/06 00:41:45;;;;;;;2.63;2.42;;;15.60;49.80;;;;;;5052277;28;20174;-68
2023/04/06 00:44:11;;;;;;;2.90;2.60;;;15.50;49.80;;;;;;5050887;28;20230;-68
2023/04/06 00:46:36;;;;;;;2.30;2.10;;;15.60;49.90;;;;;;5051626;28;20193;-68
2023/04/06 00:49:02;;;;;;;3.03;2.50;;;15.60;49.90;;;;;;5051048;28;20266;-68
2023/04/06 00:51:27;;;;;;;2.83;2.20;;;15.60;49.90;;;;;;5051754;28;20194;-68
2023/04/06 00:53:54;;;;;;;2.90;2.60;;;15.50;49.90;;;;;;5052101;28;20198;-67
2023/04/06 00:56:21;;;;;;;2.80;2.60;;;15.50;49.90;;;;;;5052725;28;20171;-67
2023/04/06 00:58:46;;;;;;;2.40;2.20;;;15.50;49.90;;;;;;5051283;28;20253;-69
2023/04/06 01:01:12;;;;;;;2.55;2.35;;;15.20;49.80;;;;;;5052468;28;20260;-68
2023/04/06 01:03:37;;;;;;;2.45;2.25;;;15.50;50.00;;;;;;5052498;28;20244;-68
2023/04/06 01:06:03;;;;;;;2.75;2.55;;;15.50;50.00;;;;;;5051322;28;20179;-68
2023/04/06 01:08:28;;;;;;;2.85;2.55;;;15.50;50.00;;;;;;5052114;28;20174;-68
2023/04/06 01:10:54;;;;;;;2.60;2.00;;;15.50;50.00;;;;;;5050793;28;20179;-68
2023/04/06 01:13:20;;;;;;;2.47;2.28;;;15.40;49.90;;;;;;5051585;28;20181;-68
2023/04/06 01:15:46;;;;;;;3.22;2.40;;;15.40;49.90;;;;;;5052093;28;20570;-67
2023/04/06 01:18:11;;;;;;;2.65;2.45;;;15.50;50.00;;;;;;5051237;28;20171;-66
2023/04/06 01:20:37;;;;;;;3.55;2.30;;;15.50;50.00;;;;;;5051516;28;20518;-67
2023/04/06 01:23:03;;;;;;;3.55;2.75;;;15.40;50.00;;;;;;5051489;28;20227;-67
2023/04/06 01:25:28;;;;;;;3.47;2.83;;;15.40;50.00;;;;;;5055251;28;20171;-67
2023/04/06 01:27:54;;;;;;;2.58;2.38;;;15.40;50.00;;;;;;5055149;28;20278;-68
2023/04/06 01:30:19;;;;;;;2.67;2.47;;;15.40;50.00;;;;;;5056405;28;20261;-68
2023/04/06 01:32:45;;;;;;;2.42;2.22;;;15.40;50.00;;;;;;5055842;28;20261;-68
2023/04/06 01:35:10;;;;;;;2.67;2.47;;;15.40;50.00;;;;;;5055555;28;20179;-68
2023/04/06 01:37:36;;;;;;;2.67;2.47;;;15.40;50.00;;;;;;5056069;28;20509;-67
2023/04/06 01:40:02;;;;;;;2.65;2.45;;;15.40;50.00;;;;;;5055669;28;20594;-68
2023/04/06 01:42:28;;;;;;;2.60;2.30;;;15.40;50.10;;;;;;5055410;28;20178;-67
2023/04/06 01:44:53;;;;;;;5.07;2.65;;;15.30;50.00;;;;;;5055750;28;20256;-68
2023/04/06 01:47:19;;;;;;;2.75;2.10;;;15.30;50.00;;;;;;5055376;28;20222;-69
2023/04/06 01:49:44;;;;;;;4.20;2.75;;;15.40;50.00;;;;;;5055826;28;20228;-68
2023/04/06 01:52:10;;;;;;;2.53;2.33;;;15.30;50.00;;;;;;5056508;28;20246;-67
2023/04/06 01:54:36;;;;;;;2.35;2.17;;;15.30;50.00;;;;;;5055550;28;20272;-67
2023/04/06 01:57:01;;;;;;;2.30;2.10;;;15.30;50.00;;;;;;5056402;28;20175;-68
2023/04/06 01:59:27;;;;;;;2.50;2.30;;;15.30;50.00;;;;;;5056447;28;20175;-67
2023/04/06 02:01:52;;;;;;;2.63;2.38;;;15.30;50.00;;;;;;5055173;28;20187;-68
2023/04/06 02:04:18;;;;;;;3.35;2.42;;;15.30;50.10;;;;;;5055285;28;20203;-68
2023/04/06 02:06:43;;;;;;;2.88;2.67;;;15.30;50.00;;;;;;5055513;28;20167;-68
2023/04/06 02:09:12;;;;;;;3.22;2.40;;;15.30;50.10;;;;;;5054519;28;20173;-67
2023/04/06 02:11:37;;;;;;;2.33;2.10;;;15.20;50.00;;;;;;5055520;28;20178;-67
2023/04/06 02:14:03;;;;;;;2.42;2.22;;;15.30;50.10;;;;;;5055546;28;20254;-67
2023/04/06 02:16:28;;;;;;;4.45;2.65;;;15.20;50.00;;;;;;5054481;28;20540;-66
2023/04/06 02:18:54;;;;;;;2.35;2.10;;;15.20;50.00;;;;;;5055426;28;20175;-67
2023/04/06 02:21:20;;;;;;;2.92;2.67;;;15.30;50.10;;;;;;5054601;28;20717;-68
2023/04/06 02:23:47;;;;;;;2.72;2.53;;;15.20;50.10;;;;;;5054717;28;20305;-67
2023/04/06 02:26:12;;;;;;;2.97;2.65;;;15.20;50.10;;;;;;5054873;28;20692;-68
2023/04/06 02:28:38;;;;;;;2.47;2.28;;;15.20;50.10;;;;;;5055160;28;20183;-69
2023/04/06 02:31:03;;;;;;;2.83;2.60;;;15.20;50.10;;;;;;5054569;28;20224;-69
2023/04/06 02:33:29;;;;;;;2.25;2.05;;;15.20;50.10;;;;;;5054891;28;20167;-68
2023/04/06 02:35:55;;;;;;;2.35;2.15;;;15.20;50.10;;;;;;5054637;28;20175;-68
2023/04/06 02:38:20;;;;;;;3.25;2.65;;;15.20;50.10;;;;;;5053969;28;20504;-66
2023/04/06 02:40:46;;;;;;;2.35;2.22;;;15.20;50.10;;;;;;5055129;28;20627;-68
2023/04/06 02:43:11;;;;;;;2.72;2.53;;;15.20;50.10;;;;;;5054500;28;20660;-68
2023/04/06 02:45:37;;;;;;;2.88;2.60;;;15.20;50.20;;;;;;5054141;28;20190;-67
2023/04/06 02:48:02;;;;;;;3.20;2.78;;;15.10;50.10;;;;;;5055041;28;20194;-69
2023/04/06 02:50:28;;;;;;;3.10;2.80;;;15.20;50.20;;;;;;5053906;28;20175;-67
2023/04/06 02:52:53;;;;;;;2.58;2.38;;;15.10;50.10;;;;;;5054591;28;20258;-68
2023/04/06 02:55:19;;;;;;;2.78;2.50;;;15.10;50.10;;;;;;5054133;28;20629;-68
2023/04/06 02:57:45;;;;;;;2.47;2.28;;;15.10;50.10;;;;;;5053901;28;20175;-68
2023/04/06 03:00:11;;;;;;;2.33;2.13;;;15.10;50.10;;;;;;5054140;28;20529;-68
2023/04/06 03:02:37;;;;;;;3.72;2.20;;;15.10;50.20;;;;;;5054357;28;20645;-68
2023/04/06 03:05:03;;;;;;;2.60;2.40;;;15.10;50.10;;;;;;5053723;28;20206;-69
2023/04/06 03:07:28;;;;;;;2.30;2.10;;;15.10;50.10;;;;;;5054008;28;20198;-68
2023/04/06 03:09:54;;;;;;;2.70;2.50;;;15.10;50.20;;;;;;5054452;28;20182;-68
2023/04/06 03:12:20;;;;;;;2.60;2.40;;;15.50;50.30;;;;;;5053175;28;20171;-67
2023/04/06 03:14:45;;;;;;;2.65;2.45;;;15.10;50.10;;;;;;5054419;28;20179;-67
2023/04/06 03:17:11;;;;;;;2.60;2.30;;;15.10;50.20;;;;;;5053872;28;20537;-67
2023/04/06 03:19:36;;;;;;;3.17;2.40;;;15.00;50.10;;;;;;5053428;28;20175;-67
2023/04/06 03:22:02;;;;;;;2.53;2.28;;;15.00;50.20;;;;;;5054015;28;20760;-66
2023/04/06 03:24:27;;;;;;;2.63;2.42;;;15.10;50.20;;;;;;5053937;28;20210;-67
2023/04/06 03:26:53;;;;;;;2.38;2.15;;;15.00;50.20;;;;;;5053475;28;20505;-68
2023/04/06 03:29:19;;;;;;;2.15;2.05;;;15.00;50.20;;;;;;5053744;28;20189;-69
2023/04/06 03:31:45;;;;;;;2.60;2.40;;;15.00;50.20;;;;;;5053824;28;20233;-69
2023/04/06 03:34:10;;;;;;;3.17;2.42;;;15.00;50.10;;;;;;5052722;28;20514;-69
2023/04/06 03:36:36;;;;;;;2.25;2.10;;;15.00;50.20;;;;;;5053777;28;20174;-68
2023/04/06 03:39:01;;;;;;;2.60;2.40;;;15.00;50.20;;;;;;5053730;28;20185;-68
2023/04/06 03:41:27;;;;;;;2.70;2.50;;;15.00;50.20;;;;;;5052957;28;20167;-68
2023/04/06 03:43:52;;;;;;;2.45;2.25;;;15.00;50.20;;;;;;5053796;28;20225;-68
2023/04/06 03:46:18;;;;;;;2.80;2.50;;;15.00;50.20;;;;;;5053070;28;20257;-68
2023/04/06 03:48:43;;;;;;;2.65;2.40;;;15.00;50.20;;;;;;5052515;28;20545;-69
2023/04/06 03:51:09;;;;;;;2.63;2.30;;;15.00;50.20;;;;;;5053350;28;20595;-69
2023/04/06 03:53:36;;;;;;;2.53;2.33;;;15.00;50.20;;;;;;5053422;28;20175;-68
2023/04/06 03:56:02;;;;;;;3.17;2.65;;;14.90;50.20;;;;;;5052781;28;20301;-67
2023/04/06 03:58:27;;;;;;;2.45;2.13;;;14.90;50.20;;;;;;5053099;28;20270;-66
2023/04/06 04:00:53;;;;;;;2.40;2.20;;;14.90;50.20;;;;;;5052704;28;20179;-68
2023/04/06 04:03:19;;;;;;;2.40;2.20;;;14.90;50.20;;;;;;5052791;28;20685;-68
2023/04/06 04:05:44;;;;;;;2.70;2.13;;;14.90;50.20;;;;;;5053291;28;20179;-67
2023/04/06 04:08:10;;;;;;;2.53;2.35;;;14.90;50.20;;;;;;5052337;28;20182;-67
2023/04/06 04:10:35;;;;;;;2.47;2.28;;;14.90;50.20;;;;;;5053353;28;20186;-67
2023/04/06 04:13:01;;;;;;;2.40;2.20;;;14.90;50.30;;;;;;5053153;28;20177;-67
2023/04/06 04:15:26;;;;;;;2.42;2.22;;;14.90;50.20;;;;;;5052243;28;20197;-67
2023/04/06 04:17:52;;;;;;;2.25;2.00;;;14.90;50.30;;;;;;5053011;28;20483;-66
2023/04/06 04:20:18;;;;;;;2.53;2.33;;;14.90;50.30;;;;;;5052689;28;20233;-66
2023/04/06 04:22:43;;;;;;;2.58;2.33;;;14.90;50.30;;;;;;5052197;28;20785;-66
2023/04/06 04:25:09;;;;;;;2.97;2.67;;;14.90;50.30;;;;;;5052593;28;20542;-67
2023/04/06 04:27:35;;;;;;;2.78;2.58;;;14.90;50.30;;;;;;5052842;28;20178;-68
2023/04/06 04:30:00;;;;;;;2.63;2.40;;;14.90;50.30;;;;;;5052109;28;20543;-69
2023/04/06 04:32:27;;;;;;;2.88;2.53;;;14.90;50.30;;;;;;5052648;28;20187;-67
2023/04/06 04:34:53;;;;;;;2.72;2.53;;;14.80;50.30;;;;;;5052570;28;20182;-68
2023/04/06 04:37:18;;;;;;;2.70;2.50;;;14.90;50.30;;;;;;5052265;28;20167;-67
2023/04/06 04:39:45;;;;;;;2.70;2.50;;;14.80;50.30;;;;;;5052782;28;20566;-67
2023/04/06 04:42:10;;;;;;;2.55;2.20;;;14.90;50.30;;;;;;5052609;28;20178;-68
2023/04/06 04:44:36;;;;;;;2.63;2.42;;;14.80;50.30;;;;;;5051896;28;20210;-68
2023/04/06 04:47:01;;;;;;;2.38;2.20;;;14.80;50.40;;;;;;5052708;28;20175;-68
2023/04/06 04:49:27;;;;;;;2.65;2.45;;;14.80;50.40;;;;;;5052681;28;20185;-68
2023/04/06 04:51:52;;;;;;;2.40;2.30;;;14.70;50.30;;;;;;5051942;28;20183;-68
2023/04/06 04:54:19;;;;;;;3.40;3.10;;;14.80;50.30;;;;;;5052374;28;20629;-67
2023/04/06 04:56:45;;;;;;;2.47;2.25;;;14.80;50.40;;;;;;5052488;28;20887;-67
2023/04/06 04:59:10;;;;;;;2.67;2.47;;;14.80;50.40;;;;;;5051524;28;20202;-68
2023/04/06 05:01:36;;;;;;;2.63;2.42;;;14.90;50.20;;;;;;5052476;28;20210;-67
2023/04/06 05:04:01;;;;;;;2.17;1.98;;;14.90;49.80;;;;;;5052424;28;20207;-68
2023/04/06 05:06:27;;;;;;;3.00;2.55;;;15.00;49.60;;;;;;5051465;28;20228;-66
2023/04/06 05:08:52;;;;;;;3.08;2.45;;;15.10;49.50;;;;;;5052437;28;20224;-68
2023/04/06 05:11:18;;;;;;;2.33;2.13;;;15.20;49.30;;;;;;5051583;28;20179;-67
2023/04/06 05:13:43;;;;;;;2.60;2.40;;;15.30;49.30;;;;;;5051204;28;20178;-67
2023/04/06 05:16:09;;;;;;;2.33;2.10;;;15.40;49.20;;;;;;5052181;28;20175;-67
2023/04/06 05:18:34;;;;;;;2.50;2.30;;;15.50;49.00;;;;;;5051722;28;20181;-68
2023/04/06 05:21:00;;;;;;;2.38;2.17;;;15.60;49.00;;;;;;5051347;28;20171;-67
2023/04/06 05:23:26;;;;;;;3.00;2.70;;;15.80;48.80;;;;;;5051076;28;20207;-67
2023/04/06 05:25:51;;;;;;;2.65;2.45;;;15.90;48.70;;;;;;5051875;28;20625;-67
2023/04/06 05:28:17;;;;;;;4.35;2.60;;;15.90;48.60;;;;;;5052145;28;20201;-67
2023/04/06 05:30:43;;;;;;;2.60;2.40;;;15.90;48.60;;;;;;5051257;28;20205;-70
2023/04/06 05:33:10;;;;;;;3.67;3.10;;;16.00;48.60;;;;;;5051515;28;20175;-69
2023/04/06 05:35:35;;;;;;;2.88;2.67;;;16.00;48.50;;;;;;5052270;28;20642;-68
2023/04/06 05:38:01;;;;;;;2.78;2.58;;;16.10;48.50;;;;;;5052408;28;20175;-67
2023/04/06 05:40:26;;;;;;;2.60;2.40;;;16.10;49.10;;;;;;5051438;28;20179;-67
2023/04/06 05:42:52;;;;;;;2.63;2.40;;;16.10;48.40;;;;;;5052450;28;20179;-69
2023/04/06 05:45:18;;;;;;;2.78;2.58;;;16.20;48.40;;;;;;5051989;28;20207;-68
2023/04/06 05:47:44;;;;;;;2.50;2.30;;;16.30;48.40;;;;;;5051692;28;20175;-69
2023/04/06 05:50:10;;;;;;;3.00;2.55;;;16.30;48.40;;;;;;5052069;28;20508;-69
2023/04/06 05:52:36;;;;;;;2.25;2.05;;;16.30;48.40;;;;;;5052266;28;20186;-69
2023/04/06 05:55:02;;;;;;;2.50;2.30;;;16.30;48.40;;;;;;5051660;28;20176;-68
2023/04/06 05:57:27;;;;;;;2.72;2.53;;;16.20;48.40;;;;;;5052038;28;20631;-67
2023/04/06 05:59:53;;;;;;;2.47;2.25;;;16.30;48.60;;;;;;5052216;28;20228;-68
2023/04/06 06:02:18;;;;;;;2.40;2.28;;;16.30;48.60;;;;;;5051139;28;20217;-68
2023/04/06 06:04:44;;;;;;;3.22;2.28;;;16.40;48.70;;;;;;5051905;28;20215;-69
2023/04/06 06:07:09;;;;;;;2.95;2.65;;;16.50;48.60;;;;;;5051713;28;20178;-68
2023/04/06 06:09:35;;;;;;;3.00;2.22;;;16.60;48.40;;;;;;5051592;28;20216;-68
2023/04/06 06:12:00;;;;;;;2.60;2.40;;;16.80;48.20;;;;;;5055705;28;20633;-68
2023/04/06 06:14:28;;;;;;;2.40;2.20;;;16.90;48.00;;;;;;5054874;28;20183;-67
2023/04/06 06:16:54;;;;;;;2.92;2.20;;;17.10;47.90;;;;;;5055602;28;20178;-68
2023/04/06 06:19:19;;;;;;;2.85;2.55;;;17.40;47.60;;;;;;5055479;28;20249;-67
2023/04/06 06:21:45;;;;;;;2.30;2.10;;;17.60;47.20;;;;;;5054767;28;20685;-67
2023/04/06 06:24:10;;;;;;;2.90;2.60;;;17.70;47.60;;;;;;5055004;28;20199;-69
2023/04/06 06:26:37;;;;;;;3.15;2.30;;;17.80;46.90;;;;;;5055611;28;20182;-69
2023/04/06 06:29:04;;;;;;;2.50;2.30;;;17.80;46.80;;;;;;5054878;28;20198;-72
2023/04/06 06:31:30;;;;;;;2.67;2.20;;;17.80;46.80;;;;;;5055144;28;20176;-70
2023/04/06 06:33:56;;;;;;;2.00;1.90;;;17.70;46.90;;;;;;5055279;28;20187;-69
2023/04/06 06:36:21;;;;;;;2.83;2.40;;;17.70;47.00;;;;;;5054422;28;20248;-68
2023/04/06 06:38:47;;;;;;;2.42;2.22;;;17.70;47.10;;;;;;5055225;28;20179;-69
2023/04/06 06:41:12;;;;;;;2.42;2.22;;;17.80;47.20;;;;;;5055018;28;20278;-68
2023/04/06 06:43:38;;;;;;;2.17;2.00;;;17.70;47.20;;;;;;5054442;28;20293;-69
2023/04/06 06:46:04;;;;;;;2.58;2.38;;;17.70;47.30;;;;;;5055191;28;20228;-69
2023/04/06 06:48:30;;;;;;;2.50;2.30;;;17.60;47.50;;;;;;5055285;28;20183;-69
2023/04/06 06:50:56;;;;;;;2.47;2.28;;;17.60;47.50;;;;;;5054508;28;20179;-70
2023/04/06 06:53:21;;;;;;;2.63;2.30;;;17.50;47.60;;;;;;5054861;28;20171;-68
2023/04/06 06:55:48;;;;;;;3.15;2.42;;;17.50;47.70;;;;;;5055020;28;20221;-69
2023/04/06 06:58:14;;;;;;;2.33;2.13;;;17.40;47.60;;;;;;5053998;28;20182;-69
2023/04/06 07:00:40;;;;;;;3.28;3.03;;;17.50;47.70;;;;;;5054953;28;20175;-70
2023/04/06 07:03:05;;;;;;;2.38;2.17;;;17.40;47.70;;;;;;5054766;28;20217;-69
2023/04/06 07:05:31;;;;;;;2.60;2.40;;;17.50;47.70;;;;;;5054162;28;20225;-69
2023/04/06 07:07:56;;;;;;;2.55;2.30;;;17.50;47.70;;;;;;5054838;28;20258;-69
2023/04/06 07:10:22;;;;;;;2.28;2.08;;;17.50;47.70;;;;;;5054292;28;20228;-68
2023/04/06 07:12:47;;;;;;;2.53;2.30;;;17.50;47.80;;;;;;5053793;28;20171;-69
2023/04/06 07:15:13;;;;;;;2.53;2.22;;;17.40;48.00;;;;;;5053987;28;20179;-69
2023/04/06 07:17:41;;;;;;;2.90;2.35;;;17.50;48.20;;;;;;5054477;28;20637;-67
2023/04/06 07:20:06;;;;;;;3.03;2.58;;;17.60;48.30;;;;;;5053643;28;20544;-68
2023/04/06 07:22:32;;;;;;;2.75;2.47;;;17.60;48.20;;;;;;5053115;28;20227;-69
2023/04/06 07:24:57;;;;;;;2.42;2.22;;;17.60;48.30;;;;;;5053503;28;20213;-69
2023/04/06 07:27:23;;;;;;;2.50;2.20;;;17.60;48.30;;;;;;5053988;28;20250;-69
2023/04/06 07:29:48;;;;;;;2.33;2.10;;;17.60;48.40;;;;;;5054111;28;20508;-71
2023/04/06 07:32:14;;;;;;;5.25;2.63;;;17.50;48.50;;;;;;5053367;28;20553;-68
2023/04/06 07:34:40;;;;;;;2.72;2.30;;;17.50;48.70;;;;;;5054190;28;20642;-71
2023/04/06 07:37:05;;;;;;;2.70;2.40;;;17.40;48.80;;;;;;5053729;28;20171;-70
2023/04/06 07:39:31;;;;;;;3.72;2.38;;;17.30;48.80;;;;;;5052120;28;20282;-69
2023/04/06 07:41:56;;;;;;;3.83;2.38;;;17.30;49.00;;;;;;5053984;28;20592;-69
2023/04/06 07:44:22;;;;;;;3.30;2.72;;;17.20;49.20;;;;;;5053784;28;20206;-66
2023/04/06 07:46:47;;;;;;;3.15;2.35;;;17.20;49.30;;;;;;5053426;28;20168;-68
2023/04/06 07:49:13;;;;;;;3.05;2.30;;;17.10;49.50;;;;;;5053782;28;20244;-67
2023/04/06 07:51:38;;;;;;;3.15;2.35;;;17.10;49.60;;;;;;5053987;28;20175;-64
2023/04/06 07:54:04;;;;;;;3.75;2.90;;;17.00;49.80;;;;;;5052889;28;20186;-68
2023/04/06 07:56:30;;;;;;;4.40;2.90;;;17.00;49.60;;;;;;5053663;28;20178;-67
2023/04/06 07:58:56;;;;;;;4.03;2.78;;;17.00;49.80;;;;;;5053503;28;20194;-68
2023/04/06 08:01:22;;;;;;;4.30;2.53;;;17.00;50.00;;;;;;5052759;28;20300;-67
2023/04/06 08:03:48;;;;;;;3.42;2.60;;;16.90;50.10;;;;;;5053210;28;20301;-68
2023/04/06 08:06:13;;;;;;;3.13;2.53;;;16.90;50.20;;;;;;5053398;28;20175;-66
2023/04/06 08:08:39;;;;;;;4.88;2.60;;;16.90;50.20;;;;;;5052520;28;20171;-67
2023/04/06 08:11:04;;;;;;;3.95;2.70;;;16.90;50.20;;;;;;5053560;28;20559;-67
2023/04/06 08:13:30;;;;;;;3.72;2.55;;;16.90;50.20;;;;;;5052095;28;20767;-66
2023/04/06 08:15:56;;;;;;;2.90;2.63;;;16.90;50.20;;;;;;5052577;28;20171;-67
2023/04/06 08:18:22;;;;;;;4.20;2.63;;;16.90;50.20;;;;;;5052299;28;20186;-65
2023/04/06 08:20:49;;;;;;;3.20;2.85;;;16.80;50.20;;;;;;5052880;28;20171;-66
2023/04/06 08:23:15;;;;;;;3.97;2.78;;;16.80;50.30;;;;;;5051354;28;20223;-65
2023/04/06 08:25:41;;;;;;;4.13;2.50;;;16.80;50.30;;;;;;5052583;28;20258;-66
2023/04/06 08:28:08;;;;;;;3.47;2.60;;;16.70;50.40;;;;;;5051519;28;20233;-67
2023/04/06 08:30:34;;;;;;;3.88;2.33;;;16.70;50.50;;;;;;5052728;28;20296;-68
2023/04/06 08:32:59;;;;;;;2.90;2.60;;;16.70;50.60;;;;;;5052224;28;20615;-68
2023/04/06 08:35:26;;;;;;;2.97;2.67;;;16.70;50.60;;;;;;5051588;28;20183;-67
2023/04/06 08:37:51;;;;;;;3.80;2.67;;;16.70;50.60;;;;;;5052558;28;20182;-67
2023/04/06 08:40:17;;;;;;;3.83;2.92;;;16.80;50.50;;;;;;5052132;28;20168;-66
2023/04/06 08:42:47;;;;;;;2.80;2.28;;;16.80;50.50;;;;;;5051593;28;20175;-67
2023/04/06 08:45:13;;;;;;;2.88;2.60;;;16.80;50.50;;;;;;5052284;28;20352;-67
2023/04/06 08:47:38;;;;;;;3.33;2.72;;;16.70;50.50;;;;;;5051199;28;20634;-68
2023/04/06 08:50:04;;;;;;;3.38;2.53;;;16.80;50.60;;;;;;5050212;28;20175;-67
2023/04/06 08:52:29;;;;;;;3.65;2.45;;;16.70;50.60;;;;;;5052144;28;20186;-66
2023/04/06 08:54:55;;;;;;;3.25;2.38;;;16.70;50.70;;;;;;5050890;28;20183;-67
2023/04/06 08:57:20;;;;;;;3.13;2.50;;;16.70;50.70;;;;;;5051168;28;20164;-66
2023/04/06 08:59:46;;;;;;;4.10;2.42;;;16.70;50.80;;;;;;5052099;28;20220;-67
2023/04/06 09:02:16;;;;;;;3.97;2.58;;;16.70;50.80;;;;;;5051716;28;20175;-67
2023/04/06 09:04:42;;;;;;;3.35;2.25;;;16.70;50.60;;;;;;5050316;28;20214;-67
2023/04/06 09:07:07;;;;;;;3.03;2.65;;;16.80;50.60;;;;;;5050603;28;20653;-66
2023/04/06 09:09:33;;;;;;;3.13;2.75;;;16.80;50.50;;;;;;5052106;28;20642;-65
2023/04/06 09:12:05;;;;;;;2.58;2.38;;;16.80;50.50;;;;;;5051141;28;20701;-66
2023/04/06 09:14:36;;;;;;;2.75;2.40;;;16.80;50.50;;;;;;5052240;28;20183;-66
2023/04/06 09:17:01;;;;;;;3.80;2.55;;;16.80;51.10;;;;;;5052012;28;20200;-66
2023/04/06 09:19:27;;;;;;;3.63;2.30;;;16.80;50.60;;;;;;5050928;28;20691;-65
2023/04/06 09:22:06;;;;;;;2.95;2.45;;;16.80;50.60;;;;;;5051620;28;20745;-64
2023/04/06 09:24:49;;;;;;;3.75;2.42;;;16.70;50.70;;;;;;5051182;28;20214;-65
2023/04/06 09:27:15;;;;;;;3.08;2.17;;;16.70;50.80;;;;;;5051743;28;20228;-66
2023/04/06 09:29:41;;;;;;;3.65;2.67;;;16.70;50.90;;;;;;5051940;28;20210;-67
2023/04/06 09:32:10;;;;;;;3.00;2.50;;;16.70;51.00;;;;;;5050950;28;20278;-67
2023/04/06 09:34:36;;;;;;;2.33;2.13;;;16.70;51.00;;;;;;5051851;28;20182;-67
2023/04/06 09:37:12;;;;;;;4.32;2.47;;;16.70;51.10;;;;;;5051734;28;20666;-67
2023/04/06 09:39:38;;;;;;;3.78;2.35;;;16.70;51.10;;;;;;5051248;28;20254;-66
2023/04/06 09:42:04;;;;;;;2.35;2.08;;;16.70;51.10;;;;;;5051785;28;20317;-67
2023/04/06 09:44:30;;;;;;;2.40;2.22;;;16.70;51.20;;;;;;5050377;28;20211;-66
2023/04/06 09:46:55;;;;;;;2.55;2.35;;;16.70;51.20;;;;;;5054790;28;20181;-67
2023/04/06 09:49:21;;;;;;;3.00;2.70;;;16.70;51.20;;;;;;5055192;28;20258;-66
2023/04/06 09:51:49;;;;;;;3.65;2.35;;;16.70;51.20;;;;;;5054732;28;20168;-67
2023/04/06 09:54:18;;;;;;;2.35;2.15;;;16.70;51.30;;;;;;5054445;28;20562;-66
2023/04/06 09:56:47;;;;;;;3.08;2.45;;;16.70;51.30;;;;;;5055372;28;20645;-67
2023/04/06 09:59:30;;;;;;;2.35;2.15;;;16.60;51.10;;;;;;5055226;28;20189;-67
2023/04/06 10:01:56;;;;;;;3.72;2.88;;;16.70;51.30;;;;;;5055154;28;20270;-67
2023/04/06 10:04:29;;;;;;;3.88;2.40;;;16.70;51.20;;;;;;5053629;28;20290;-67
2023/04/06 10:06:55;;;;;;;2.60;2.40;;;16.70;51.20;;;;;;5054677;28;20179;-67
2023/04/06 10:09:23;;;;;;;2.40;2.20;;;16.70;51.20;;;;;;5053657;28;20205;-66
2023/04/06 10:11:50;;;;;;;3.00;2.50;;;16.60;51.10;;;;;;5053902;28;20253;-66
2023/04/06 10:14:15;;;;;;;2.60;2.40;;;16.60;51.10;;;;;;5054022;28;20244;-65
2023/04/06 10:16:41;;;;;;;2.60;2.20;;;16.60;51.10;;;;;;5054040;28;20185;-65
2023/04/06 10:19:13;;;;;;;2.50;2.33;;;16.60;51.10;;;;;;5054015;28;20171;-66
2023/04/06 10:21:39;;;;;;;3.10;2.40;;;16.60;51.10;;;;;;5053411;28;20310;-65
2023/04/06 10:24:09;;;;;;;2.75;2.40;;;16.60;51.20;;;;;;5053768;28;20285;-65
2023/04/06 10:26:35;;;;;;;2.58;2.38;;;16.60;51.20;;;;;;5053895;28;20205;-67
2023/04/06 10:29:03;;;;;;;2.53;2.03;;;16.60;51.20;;;;;;5054241;28;20167;-68
2023/04/06 10:31:28;;;;;;;2.60;2.40;;;16.60;51.20;;;;;;5054905;28;20183;-66
2023/04/06 10:33:59;;;;;;;2.50;2.30;;;16.60;51.30;;;;;;5055098;28;20221;-67
2023/04/06 10:36:31;;;;;;;3.63;2.47;;;16.60;51.30;;;;;;5054056;28;20581;-65
2023/04/06 10:38:58;;;;;;;2.70;2.35;;;16.60;51.20;;;;;;5055064;28;20179;-67
2023/04/06 10:41:25;;;;;;;2.60;2.40;;;16.60;51.20;;;;;;5054532;28;20184;-67
2023/04/06 10:43:57;;;;;;;3.63;2.70;;;16.60;51.20;;;;;;5054325;28;20206;-67
2023/04/06 10:46:29;;;;;;;3.97;2.65;;;16.60;51.20;;;;;;5054676;28;20182;-67
2023/04/06 10:48:55;;;;;;;3.22;2.67;;;16.60;51.20;;;;;;5054132;28;20565;-67
2023/04/06 10:51:26;;;;;;;3.20;2.78;;;16.60;51.30;;;;;;5054614;28;20175;-67
2023/04/06 10:53:52;;;;;;;3.53;2.90;;;16.60;51.20;;;;;;5054576;28;20646;-67
2023/04/06 10:56:18;;;;;;;3.35;2.70;;;16.60;51.20;;;;;;5052219;28;20266;-66
2023/04/06 10:58:51;;;;;;;3.33;3.03;;;16.60;51.10;;;;;;5054458;28;20229;-67
2023/04/06 11:01:17;;;;;;;3.97;2.75;;;16.60;51.10;;;;;;5054185;28;20752;-67
2023/04/06 11:03:46;;;;;;;4.13;2.78;;;16.60;51.10;;;;;;5053666;28;20598;-67
2023/04/06 11:06:18;;;;;;;4.25;3.15;;;16.60;51.10;;;;;;5054231;28;20531;-67
2023/04/06 11:08:43;;;;;;;2.58;2.38;;;16.60;51.00;;;;;;5054318;28;20583;-66
2023/04/06 11:11:10;;;;;;;2.78;2.42;;;16.60;51.00;;;;;;5053527;28;20179;-66
2023/04/06 11:13:42;;;;;;;3.03;2.83;;;16.60;51.00;;;;;;5054460;28;20175;-66
2023/04/06 11:16:15;;;;;;;2.80;2.50;;;16.60;50.90;;;;;;5053924;28;20187;-65
2023/04/06 11:18:55;;;;;;;2.90;2.60;;;16.60;50.90;;;;;;5053311;28;20171;-66
2023/04/06 11:21:33;;;;;;;2.90;2.60;;;16.60;50.80;;;;;;5053613;28;20641;-65
2023/04/06 11:24:06;;;;;;;2.97;2.50;;;16.60;50.70;;;;;;5053480;28;20211;-65
2023/04/06 11:26:31;;;;;;;2.90;2.60;;;16.60;50.80;;;;;;5053962;28;20190;-66
2023/04/06 11:28:56;;;;;;;2.92;2.35;;;16.60;50.80;;;;;;5054075;28;20365;-67
2023/04/06 11:31:26;;;;;;;3.10;2.67;;;16.60;50.90;;;;;;5052890;28;20270;-67
2023/04/06 11:33:58;;;;;;;3.08;2.50;;;16.60;50.90;;;;;;5053798;28;20232;-68
2023/04/06 11:36:26;;;;;;;2.97;2.47;;;16.60;50.90;;;;;;5052580;28;20167;-66
2023/04/06 11:38:52;;;;;;;2.53;2.33;;;16.60;50.80;;;;;;5052001;28;20197;-67
2023/04/06 11:41:17;;;;;;;2.63;2.35;;;16.70;50.80;;;;;;5053570;28;20171;-66
2023/04/06 11:43:47;;;;;;;3.05;2.72;;;16.70;50.90;;;;;;5052402;28;20202;-67
2023/04/06 11:46:17;;;;;;;3.72;2.45;;;16.70;50.70;;;;;;5052644;28;20179;-67
2023/04/06 11:48:46;;;;;;;3.05;2.75;;;16.70;51.30;;;;;;5052310;28;20167;-67
2023/04/06 11:51:23;;;;;;;3.25;2.75;;;16.70;50.70;;;;;;5053354;28;20197;-67
2023/04/06 11:53:49;;;;;;;3.72;2.47;;;16.70;50.70;;;;;;5052786;28;20175;-67
2023/04/06 11:56:28;;;;;;;2.55;2.35;;;16.70;50.70;;;;;;5053128;28;20569;-66
2023/04/06 11:58:58;;;;;;;2.45;2.25;;;16.70;50.80;;;;;;5053531;28;20187;-67
2023/04/06 12:01:24;;;;;;;2.67;2.47;;;16.60;50.70;;;;;;5052588;28;20175;-66
2023/04/06 12:03:50;;;;;;;3.35;2.90;;;16.60;50.70;;;;;;5053284;28;20235;-67
2023/04/06 12:06:16;;;;;;;3.08;2.63;;;16.60;50.70;;;;;;5052338;28;20182;-66
2023/04/06 12:08:41;;;;;;;3.72;2.58;;;16.60;50.80;;;;;;5052797;28;20540;-65
2023/04/06 12:11:07;;;;;;;2.95;2.70;;;16.60;50.70;;;;;;5052967;28;20176;-66
2023/04/06 12:13:33;;;;;;;3.58;2.45;;;16.60;50.80;;;;;;5052486;28;20174;-66
2023/04/06 12:15:58;;;;;;;4.22;2.63;;;16.50;50.90;;;;;;5053111;28;20183;-66
2023/04/06 12:18:25;;;;;;;2.50;2.30;;;16.50;50.90;;;;;;5052592;28;20172;-65
2023/04/06 12:20:51;;;;;;;2.60;2.22;;;16.50;51.10;;;;;;5052107;28;20187;-65
2023/04/06 12:23:16;;;;;;;3.72;2.70;;;16.60;51.10;;;;;;5051042;28;20595;-65
2023/04/06 12:25:42;;;;;;;2.30;2.08;;;16.60;51.10;;;;;;5052428;28;20214;-66
2023/04/06 12:28:07;;;;;;;2.15;1.95;;;16.60;51.10;;;;;;5051846;28;20167;-66
2023/04/06 12:30:34;;;;;;;2.30;2.10;;;16.60;51.10;;;;;;5052691;28;20201;-68
2023/04/06 12:33:00;;;;;;;2.85;2.17;;;16.60;51.10;;;;;;5052643;28;20554;-67
2023/04/06 12:35:25;;;;;;;2.40;2.17;;;16.50;51.10;;;;;;5051588;28;20649;-66
2023/04/06 12:37:51;;;;;;;2.40;2.00;;;16.50;51.20;;;;;;5052649;28;20213;-66
2023/04/06 12:40:17;;;;;;;1.90;1.80;;;16.60;51.30;;;;;;5052042;28;20250;-65
2023/04/06 12:42:42;;;;;;;2.42;2.20;;;16.50;51.30;;;;;;5051859;28;20167;-66